Brantwood, Wisconsin
Current Conditions -  °F | °C
As of 9:55 AM on Friday 28 Nov 2014 (Local Time) from KPBH Reporting Station
Light Snow Light Snow  
Wind Chill: -2°   Ceiling: 2800
Heat Index:   Visibility: 10mi
Dew Point:   Wind: 7mph
Humidity: 86%   Direction: 140°SE
Pressure: 30.02"   Gusts: NA
Location:  45.56°N, 90.12°W
Report Text: KPBH 281555Z AUTO 14006KT 10SM -SN OVC028 M13/M15 A3002 RMK AO2 T11291148
Loading
Personal Weather Stations






























Interactive Weather Map New forecast layout! Learn more

10-Day Weather Forecast

Advertisements
Track Severe Weather on mobile